sensor_id;sensor_type;location;lat;lon;timestamp;pressure;altitude;pressure_sealevel;temperature
80496;BMP180;69819;48.798;11.770;2023-06-22T00:02:14;97718.00;;;21.00
80496;BMP180;69819;48.798;11.770;2023-06-22T00:04:40;97670.00;;;21.00
80496;BMP180;69819;48.798;11.770;2023-06-22T00:07:06;97664.00;;;21.00
80496;BMP180;69819;48.798;11.770;2023-06-22T00:09:33;97674.00;;;20.90
80496;BMP180;69819;48.798;11.770;2023-06-22T00:11:59;97694.00;;;20.90
80496;BMP180;69819;48.798;11.770;2023-06-22T00:14:24;97688.00;;;20.90
80496;BMP180;69819;48.798;11.770;2023-06-22T00:16:50;97671.00;;;20.80
80496;BMP180;69819;48.798;11.770;2023-06-22T00:19:23;97636.00;;;20.80
80496;BMP180;69819;48.798;11.770;2023-06-22T00:21:50;97663.00;;;20.80
80496;BMP180;69819;48.798;11.770;2023-06-22T00:24:22;97641.00;;;20.80
80496;BMP180;69819;48.798;11.770;2023-06-22T00:26:50;97669.00;;;20.80
80496;BMP180;69819;48.798;11.770;2023-06-22T00:29:16;97596.00;;;20.80
80496;BMP180;69819;48.798;11.770;2023-06-22T00:31:44;97631.00;;;20.80
80496;BMP180;69819;48.798;11.770;2023-06-22T00:34:09;97666.00;;;20.80
80496;BMP180;69819;48.798;11.770;2023-06-22T00:36:36;97610.00;;;20.80
80496;BMP180;69819;48.798;11.770;2023-06-22T00:39:02;97656.00;;;20.80
80496;BMP180;69819;48.798;11.770;2023-06-22T00:41:28;97669.00;;;20.70
80496;BMP180;69819;48.798;11.770;2023-06-22T00:43:54;97668.00;;;20.70
80496;BMP180;69819;48.798;11.770;2023-06-22T00:46:21;97670.00;;;20.70
80496;BMP180;69819;48.798;11.770;2023-06-22T00:48:50;97662.00;;;20.70
80496;BMP180;69819;48.798;11.770;2023-06-22T00:51:17;97679.00;;;20.70
80496;BMP180;69819;48.798;11.770;2023-06-22T00:53:43;97648.00;;;20.60
80496;BMP180;69819;48.798;11.770;2023-06-22T00:56:09;97624.00;;;20.60
80496;BMP180;69819;48.798;11.770;2023-06-22T00:58:38;97625.00;;;20.60
80496;BMP180;69819;48.798;11.770;2023-06-22T01:01:07;97629.00;;;20.50
80496;BMP180;69819;48.798;11.770;2023-06-22T01:03:33;97616.00;;;20.50
80496;BMP180;69819;48.798;11.770;2023-06-22T01:06:08;97650.00;;;20.50
80496;BMP180;69819;48.798;11.770;2023-06-22T01:09:06;97647.00;;;20.40
80496;BMP180;69819;48.798;11.770;2023-06-22T01:11:42;97633.00;;;20.40
80496;BMP180;69819;48.798;11.770;2023-06-22T01:14:39;97648.00;;;20.30
80496;BMP180;69819;48.798;11.770;2023-06-22T01:17:09;97631.00;;;20.30
80496;BMP180;69819;48.798;11.770;2023-06-22T01:19:50;97631.00;;;20.30
80496;BMP180;69819;48.798;11.770;2023-06-22T01:22:25;97631.00;;;20.30
80496;BMP180;69819;48.798;11.770;2023-06-22T01:25:09;97649.00;;;20.20
80496;BMP180;69819;48.798;11.770;2023-06-22T01:30:45;97644.00;;;20.20
80496;BMP180;69819;48.798;11.770;2023-06-22T01:33:13;97606.00;;;20.20
80496;BMP180;69819;48.798;11.770;2023-06-22T01:35:41;97630.00;;;20.20
80496;BMP180;69819;48.798;11.770;2023-06-22T01:38:09;97621.00;;;20.20
80496;BMP180;69819;48.798;11.770;2023-06-22T01:40:36;97649.00;;;20.30
80496;BMP180;69819;48.798;11.770;2023-06-22T01:43:03;97658.00;;;20.30
80496;BMP180;69819;48.798;11.770;2023-06-22T01:45:30;97637.00;;;20.30
80496;BMP180;69819;48.798;11.770;2023-06-22T01:47:56;97651.00;;;20.30
80496;BMP180;69819;48.798;11.770;2023-06-22T01:50:22;97615.00;;;20.20
80496;BMP180;69819;48.798;11.770;2023-06-22T01:52:48;97675.00;;;20.30
80496;BMP180;69819;48.798;11.770;2023-06-22T01:55:14;97623.00;;;20.30
80496;BMP180;69819;48.798;11.770;2023-06-22T01:57:40;97671.00;;;20.30
80496;BMP180;69819;48.798;11.770;2023-06-22T02:00:21;97668.00;;;20.20
80496;BMP180;69819;48.798;11.770;2023-06-22T02:03:02;97664.00;;;20.20
80496;BMP180;69819;48.798;11.770;2023-06-22T02:05:47;97678.00;;;20.20
80496;BMP180;69819;48.798;11.770;2023-06-22T02:08:20;97665.00;;;20.10
80496;BMP180;69819;48.798;11.770;2023-06-22T02:10:48;97673.00;;;20.20
80496;BMP180;69819;48.798;11.770;2023-06-22T02:13:15;97667.00;;;20.20
80496;BMP180;69819;48.798;11.770;2023-06-22T02:15:42;97671.00;;;20.20
80496;BMP180;69819;48.798;11.770;2023-06-22T02:18:08;97639.00;;;20.20
80496;BMP180;69819;48.798;11.770;2023-06-22T02:20:37;97656.00;;;20.20
80496;BMP180;69819;48.798;11.770;2023-06-22T02:23:03;97670.00;;;20.20
80496;BMP180;69819;48.798;11.770;2023-06-22T02:25:29;97626.00;;;20.20
80496;BMP180;69819;48.798;11.770;2023-06-22T02:27:54;97669.00;;;20.20
80496;BMP180;69819;48.798;11.770;2023-06-22T02:30:20;97647.00;;;20.20
80496;BMP180;69819;48.798;11.770;2023-06-22T02:32:46;97648.00;;;20.10
80496;BMP180;69819;48.798;11.770;2023-06-22T02:35:12;97643.00;;;20.20
80496;BMP180;69819;48.798;11.770;2023-06-22T02:37:38;97655.00;;;20.20
80496;BMP180;69819;48.798;11.770;2023-06-22T02:40:08;97650.00;;;20.10
80496;BMP180;69819;48.798;11.770;2023-06-22T02:42:40;97646.00;;;20.10
80496;BMP180;69819;48.798;11.770;2023-06-22T02:45:06;97635.00;;;20.10
80496;BMP180;69819;48.798;11.770;2023-06-22T02:47:32;97652.00;;;20.00
80496;BMP180;69819;48.798;11.770;2023-06-22T02:49:58;97613.00;;;20.00
80496;BMP180;69819;48.798;11.770;2023-06-22T02:52:23;97628.00;;;20.00
80496;BMP180;69819;48.798;11.770;2023-06-22T02:54:49;97635.00;;;20.00
80496;BMP180;69819;48.798;11.770;2023-06-22T02:57:15;97612.00;;;20.00
80496;BMP180;69819;48.798;11.770;2023-06-22T02:59:41;97639.00;;;20.00
80496;BMP180;69819;48.798;11.770;2023-06-22T03:02:11;97648.00;;;19.90
80496;BMP180;69819;48.798;11.770;2023-06-22T03:04:37;97651.00;;;19.90
80496;BMP180;69819;48.798;11.770;2023-06-22T03:07:03;97633.00;;;19.60
80496;BMP180;69819;48.798;11.770;2023-06-22T03:09:29;97644.00;;;19.90
80496;BMP180;69819;48.798;11.770;2023-06-22T03:11:55;97645.00;;;19.90
80496;BMP180;69819;48.798;11.770;2023-06-22T03:14:21;97649.00;;;19.90
80496;BMP180;69819;48.798;11.770;2023-06-22T03:16:47;97654.00;;;19.90
80496;BMP180;69819;48.798;11.770;2023-06-22T03:19:13;97647.00;;;19.90
80496;BMP180;69819;48.798;11.770;2023-06-22T03:21:40;97614.00;;;19.90
80496;BMP180;69819;48.798;11.770;2023-06-22T03:24:07;97621.00;;;19.90
80496;BMP180;69819;48.798;11.770;2023-06-22T03:26:33;97545.00;;;19.90
80496;BMP180;69819;48.798;11.770;2023-06-22T03:29:00;97597.00;;;19.90
80496;BMP180;69819;48.798;11.770;2023-06-22T03:31:25;97619.00;;;20.00
80496;BMP180;69819;48.798;11.770;2023-06-22T03:33:51;97655.00;;;20.00
80496;BMP180;69819;48.798;11.770;2023-06-22T03:36:18;97604.00;;;20.00
80496;BMP180;69819;48.798;11.770;2023-06-22T03:38:48;97616.00;;;20.10
80496;BMP180;69819;48.798;11.770;2023-06-22T03:41:15;97652.00;;;20.10
80496;BMP180;69819;48.798;11.770;2023-06-22T03:43:41;97641.00;;;20.00
80496;BMP180;69819;48.798;11.770;2023-06-22T03:46:08;97644.00;;;20.20
80496;BMP180;69819;48.798;11.770;2023-06-22T03:48:35;97611.00;;;20.30
80496;BMP180;69819;48.798;11.770;2023-06-22T03:51:02;97644.00;;;20.40
80496;BMP180;69819;48.798;11.770;2023-06-22T03:53:30;97626.00;;;20.50
80496;BMP180;69819;48.798;11.770;2023-06-22T03:55:56;97637.00;;;20.60
80496;BMP180;69819;48.798;11.770;2023-06-22T03:58:22;97618.00;;;20.70
80496;BMP180;69819;48.798;11.770;2023-06-22T04:00:50;97630.00;;;20.80
80496;BMP180;69819;48.798;11.770;2023-06-22T04:03:17;97627.00;;;20.90
80496;BMP180;69819;48.798;11.770;2023-06-22T04:05:46;97651.00;;;21.10
80496;BMP180;69819;48.798;11.770;2023-06-22T04:08:13;97606.00;;;21.20
80496;BMP180;69819;48.798;11.770;2023-06-22T04:10:39;97632.00;;;21.50
80496;BMP180;69819;48.798;11.770;2023-06-22T04:13:05;97664.00;;;21.70
80496;BMP180;69819;48.798;11.770;2023-06-22T04:15:31;97664.00;;;21.90
80496;BMP180;69819;48.798;11.770;2023-06-22T04:17:57;97654.00;;;22.10
80496;BMP180;69819;48.798;11.770;2023-06-22T04:20:23;97651.00;;;22.30
80496;BMP180;69819;48.798;11.770;2023-06-22T04:22:53;97651.00;;;22.50
80496;BMP180;69819;48.798;11.770;2023-06-22T04:25:20;97666.00;;;22.80
80496;BMP180;69819;48.798;11.770;2023-06-22T04:27:46;97667.00;;;22.90
80496;BMP180;69819;48.798;11.770;2023-06-22T04:30:12;97631.00;;;23.20
80496;BMP180;69819;48.798;11.770;2023-06-22T04:32:40;97660.00;;;23.50
80496;BMP180;69819;48.798;11.770;2023-06-22T04:35:07;97679.00;;;23.70
80496;BMP180;69819;48.798;11.770;2023-06-22T04:37:34;97656.00;;;23.90
80496;BMP180;69819;48.798;11.770;2023-06-22T04:40:00;97661.00;;;24.20
80496;BMP180;69819;48.798;11.770;2023-06-22T04:42:28;97636.00;;;24.50
80496;BMP180;69819;48.798;11.770;2023-06-22T04:44:54;97660.00;;;24.80
80496;BMP180;69819;48.798;11.770;2023-06-22T04:47:20;97657.00;;;25.10
80496;BMP180;69819;48.798;11.770;2023-06-22T04:49:46;97648.00;;;25.50
80496;BMP180;69819;48.798;11.770;2023-06-22T04:52:13;97662.00;;;25.80
80496;BMP180;69819;48.798;11.770;2023-06-22T04:54:40;97633.00;;;26.20
80496;BMP180;69819;48.798;11.770;2023-06-22T04:57:13;97674.00;;;26.60
80496;BMP180;69819;48.798;11.770;2023-06-22T04:59:40;97674.00;;;26.90
80496;BMP180;69819;48.798;11.770;2023-06-22T05:02:07;97662.00;;;27.30
80496;BMP180;69819;48.798;11.770;2023-06-22T05:04:34;97663.00;;;27.70
80496;BMP180;69819;48.798;11.770;2023-06-22T05:07:04;97662.00;;;28.10
80496;BMP180;69819;48.798;11.770;2023-06-22T05:09:30;97651.00;;;28.50
80496;BMP180;69819;48.798;11.770;2023-06-22T05:11:56;97672.00;;;28.90
80496;BMP180;69819;48.798;11.770;2023-06-22T05:14:23;97678.00;;;29.40
80496;BMP180;69819;48.798;11.770;2023-06-22T05:16:50;97638.00;;;29.80
80496;BMP180;69819;48.798;11.770;2023-06-22T05:19:17;97653.00;;;30.20
80496;BMP180;69819;48.798;11.770;2023-06-22T05:21:43;97629.00;;;30.50
80496;BMP180;69819;48.798;11.770;2023-06-22T05:24:09;97653.00;;;30.80
80496;BMP180;69819;48.798;11.770;2023-06-22T05:26:35;97648.00;;;31.00
80496;BMP180;69819;48.798;11.770;2023-06-22T05:29:03;97655.00;;;31.20
80496;BMP180;69819;48.798;11.770;2023-06-22T05:31:29;97652.00;;;31.40
80496;BMP180;69819;48.798;11.770;2023-06-22T05:33:56;97613.00;;;31.60
80496;BMP180;69819;48.798;11.770;2023-06-22T05:36:22;97644.00;;;31.80
80496;BMP180;69819;48.798;11.770;2023-06-22T05:38:52;97652.00;;;32.00
80496;BMP180;69819;48.798;11.770;2023-06-22T05:41:18;97653.00;;;32.20
80496;BMP180;69819;48.798;11.770;2023-06-22T05:43:44;97626.00;;;32.40
80496;BMP180;69819;48.798;11.770;2023-06-22T05:46:09;97622.00;;;32.60
80496;BMP180;69819;48.798;11.770;2023-06-22T05:48:35;97659.00;;;32.90
80496;BMP180;69819;48.798;11.770;2023-06-22T05:51:01;97658.00;;;33.30
80496;BMP180;69819;48.798;11.770;2023-06-22T05:53:27;97662.00;;;33.60
80496;BMP180;69819;48.798;11.770;2023-06-22T05:55:53;97643.00;;;34.00
80496;BMP180;69819;48.798;11.770;2023-06-22T05:58:19;97655.00;;;34.30
80496;BMP180;69819;48.798;11.770;2023-06-22T06:00:44;97651.00;;;34.60
80496;BMP180;69819;48.798;11.770;2023-06-22T06:03:11;97659.00;;;34.90
80496;BMP180;69819;48.798;11.770;2023-06-22T06:05:36;97636.00;;;35.10
80496;BMP180;69819;48.798;11.770;2023-06-22T06:08:05;97640.00;;;35.30
80496;BMP180;69819;48.798;11.770;2023-06-22T06:10:33;97637.00;;;35.30
80496;BMP180;69819;48.798;11.770;2023-06-22T06:12:59;97640.00;;;35.40
80496;BMP180;69819;48.798;11.770;2023-06-22T06:15:28;97650.00;;;35.60
80496;BMP180;69819;48.798;11.770;2023-06-22T06:17:54;97636.00;;;35.60
80496;BMP180;69819;48.798;11.770;2023-06-22T06:20:25;97641.00;;;35.70
80496;BMP180;69819;48.798;11.770;2023-06-22T06:22:53;97626.00;;;35.80
80496;BMP180;69819;48.798;11.770;2023-06-22T06:25:18;97632.00;;;35.90
80496;BMP180;69819;48.798;11.770;2023-06-22T06:27:47;97621.00;;;35.90
80496;BMP180;69819;48.798;11.770;2023-06-22T06:30:14;97629.00;;;36.10
80496;BMP180;69819;48.798;11.770;2023-06-22T06:32:41;97612.00;;;36.40
80496;BMP180;69819;48.798;11.770;2023-06-22T06:35:09;97631.00;;;36.70
80496;BMP180;69819;48.798;11.770;2023-06-22T06:37:41;97632.00;;;37.00
80496;BMP180;69819;48.798;11.770;2023-06-22T06:40:09;97634.00;;;37.30
80496;BMP180;69819;48.798;11.770;2023-06-22T06:42:39;97591.00;;;37.60
80496;BMP180;69819;48.798;11.770;2023-06-22T06:45:08;97614.00;;;37.80
80496;BMP180;69819;48.798;11.770;2023-06-22T06:47:34;97594.00;;;37.90
80496;BMP180;69819;48.798;11.770;2023-06-22T06:50:00;97634.00;;;38.00
80496;BMP180;69819;48.798;11.770;2023-06-22T06:52:26;97604.00;;;38.10
80496;BMP180;69819;48.798;11.770;2023-06-22T06:54:52;97614.00;;;38.20
80496;BMP180;69819;48.798;11.770;2023-06-22T06:57:20;97609.00;;;38.20
80496;BMP180;69819;48.798;11.770;2023-06-22T06:59:48;97620.00;;;38.40
80496;BMP180;69819;48.798;11.770;2023-06-22T07:02:15;97602.00;;;38.70
80496;BMP180;69819;48.798;11.770;2023-06-22T07:04:41;97610.00;;;38.90
80496;BMP180;69819;48.798;11.770;2023-06-22T07:07:07;97605.00;;;39.20
80496;BMP180;69819;48.798;11.770;2023-06-22T07:09:33;97603.00;;;39.50
80496;BMP180;69819;48.798;11.770;2023-06-22T07:11:59;97612.00;;;39.80
80496;BMP180;69819;48.798;11.770;2023-06-22T07:14:24;97600.00;;;40.00
80496;BMP180;69819;48.798;11.770;2023-06-22T07:16:50;97603.00;;;40.30
80496;BMP180;69819;48.798;11.770;2023-06-22T07:19:16;97589.00;;;40.50
80496;BMP180;69819;48.798;11.770;2023-06-22T07:21:41;97594.00;;;40.60
80496;BMP180;69819;48.798;11.770;2023-06-22T07:24:07;97597.00;;;40.70
80496;BMP180;69819;48.798;11.770;2023-06-22T07:26:34;97600.00;;;40.80
80496;BMP180;69819;48.798;11.770;2023-06-22T07:29:00;97609.00;;;40.90
80496;BMP180;69819;48.798;11.770;2023-06-22T07:31:26;97603.00;;;41.00
80496;BMP180;69819;48.798;11.770;2023-06-22T07:33:52;97580.00;;;41.10
80496;BMP180;69819;48.798;11.770;2023-06-22T07:36:18;97568.00;;;41.20
80496;BMP180;69819;48.798;11.770;2023-06-22T07:38:44;97582.00;;;41.30
80496;BMP180;69819;48.798;11.770;2023-06-22T07:41:10;97589.00;;;41.40
80496;BMP180;69819;48.798;11.770;2023-06-22T07:43:36;97595.00;;;41.70
80496;BMP180;69819;48.798;11.770;2023-06-22T07:46:06;97569.00;;;41.90
80496;BMP180;69819;48.798;11.770;2023-06-22T07:48:32;97566.00;;;42.10
80496;BMP180;69819;48.798;11.770;2023-06-22T07:50:57;97587.00;;;42.30
80496;BMP180;69819;48.798;11.770;2023-06-22T07:53:23;97566.00;;;42.40
80496;BMP180;69819;48.798;11.770;2023-06-22T07:55:50;97575.00;;;42.40
80496;BMP180;69819;48.798;11.770;2023-06-22T07:58:16;97566.00;;;42.50
80496;BMP180;69819;48.798;11.770;2023-06-22T08:00:44;97584.00;;;42.50
80496;BMP180;69819;48.798;11.770;2023-06-22T08:03:10;97579.00;;;42.50
80496;BMP180;69819;48.798;11.770;2023-06-22T08:05:35;97566.00;;;42.60
80496;BMP180;69819;48.798;11.770;2023-06-22T08:08:01;97553.00;;;42.60
80496;BMP180;69819;48.798;11.770;2023-06-22T08:10:27;97565.00;;;42.80
80496;BMP180;69819;48.798;11.770;2023-06-22T08:12:53;97578.00;;;42.80
80496;BMP180;69819;48.798;11.770;2023-06-22T08:15:19;97580.00;;;42.90
80496;BMP180;69819;48.798;11.770;2023-06-22T08:17:45;97578.00;;;42.90
80496;BMP180;69819;48.798;11.770;2023-06-22T08:20:11;97583.00;;;42.90
80496;BMP180;69819;48.798;11.770;2023-06-22T08:22:39;97588.00;;;42.70
80496;BMP180;69819;48.798;11.770;2023-06-22T08:25:06;97585.00;;;42.50
80496;BMP180;69819;48.798;11.770;2023-06-22T08:27:32;97579.00;;;42.40
80496;BMP180;69819;48.798;11.770;2023-06-22T08:30:01;97585.00;;;42.30
80496;BMP180;69819;48.798;11.770;2023-06-22T08:32:30;97583.00;;;42.40
80496;BMP180;69819;48.798;11.770;2023-06-22T08:34:58;97571.00;;;42.50
80496;BMP180;69819;48.798;11.770;2023-06-22T08:37:24;97545.00;;;42.60
80496;BMP180;69819;48.798;11.770;2023-06-22T08:40:08;97577.00;;;42.80
80496;BMP180;69819;48.798;11.770;2023-06-22T08:42:35;97572.00;;;43.00
80496;BMP180;69819;48.798;11.770;2023-06-22T08:45:02;97552.00;;;43.10
80496;BMP180;69819;48.798;11.770;2023-06-22T08:47:28;97531.00;;;43.20
80496;BMP180;69819;48.798;11.770;2023-06-22T08:49:54;97571.00;;;43.20
80496;BMP180;69819;48.798;11.770;2023-06-22T08:52:20;97560.00;;;43.10
80496;BMP180;69819;48.798;11.770;2023-06-22T08:54:47;97561.00;;;43.00
80496;BMP180;69819;48.798;11.770;2023-06-22T08:57:12;97568.00;;;43.00
80496;BMP180;69819;48.798;11.770;2023-06-22T08:59:38;97568.00;;;43.00
80496;BMP180;69819;48.798;11.770;2023-06-22T09:02:05;97573.00;;;43.20
80496;BMP180;69819;48.798;11.770;2023-06-22T09:04:31;97571.00;;;43.30
80496;BMP180;69819;48.798;11.770;2023-06-22T09:07:01;97569.00;;;43.50
80496;BMP180;69819;48.798;11.770;2023-06-22T09:09:27;97556.00;;;43.70
80496;BMP180;69819;48.798;11.770;2023-06-22T09:11:53;97570.00;;;43.80
80496;BMP180;69819;48.798;11.770;2023-06-22T09:14:18;97552.00;;;43.90
80496;BMP180;69819;48.798;11.770;2023-06-22T09:16:44;97545.00;;;44.00
80496;BMP180;69819;48.798;11.770;2023-06-22T09:19:10;97547.00;;;44.00
80496;BMP180;69819;48.798;11.770;2023-06-22T09:21:37;97546.00;;;43.90
80496;BMP180;69819;48.798;11.770;2023-06-22T09:24:03;97522.00;;;43.80
80496;BMP180;69819;48.798;11.770;2023-06-22T09:26:29;97531.00;;;43.70
80496;BMP180;69819;48.798;11.770;2023-06-22T09:28:55;97515.00;;;43.50
80496;BMP180;69819;48.798;11.770;2023-06-22T09:31:21;97542.00;;;43.40
80496;BMP180;69819;48.798;11.770;2023-06-22T09:33:55;97548.00;;;43.40
80496;BMP180;69819;48.798;11.770;2023-06-22T09:36:21;97545.00;;;43.40
80496;BMP180;69819;48.798;11.770;2023-06-22T09:38:48;97560.00;;;43.40
80496;BMP180;69819;48.798;11.770;2023-06-22T09:41:14;97521.00;;;43.40
80496;BMP180;69819;48.798;11.770;2023-06-22T09:43:41;97525.00;;;43.30
80496;BMP180;69819;48.798;11.770;2023-06-22T09:46:07;97528.00;;;43.10
80496;BMP180;69819;48.798;11.770;2023-06-22T09:48:34;97534.00;;;42.90
80496;BMP180;69819;48.798;11.770;2023-06-22T09:51:00;97538.00;;;42.70
80496;BMP180;69819;48.798;11.770;2023-06-22T09:53:26;97536.00;;;42.50
80496;BMP180;69819;48.798;11.770;2023-06-22T09:55:52;97530.00;;;42.30
80496;BMP180;69819;48.798;11.770;2023-06-22T09:58:17;97519.00;;;42.10
80496;BMP180;69819;48.798;11.770;2023-06-22T10:00:43;97516.00;;;42.00
80496;BMP180;69819;48.798;11.770;2023-06-22T10:03:09;97512.00;;;41.80
80496;BMP180;69819;48.798;11.770;2023-06-22T10:05:35;97525.00;;;41.60
80496;BMP180;69819;48.798;11.770;2023-06-22T10:08:00;97495.00;;;41.50
80496;BMP180;69819;48.798;11.770;2023-06-22T10:10:26;97525.00;;;41.20
80496;BMP180;69819;48.798;11.770;2023-06-22T10:12:57;97522.00;;;41.00
80496;BMP180;69819;48.798;11.770;2023-06-22T10:15:28;97494.00;;;40.70
80496;BMP180;69819;48.798;11.770;2023-06-22T10:17:53;97512.00;;;40.40
80496;BMP180;69819;48.798;11.770;2023-06-22T10:20:19;97525.00;;;40.10
80496;BMP180;69819;48.798;11.770;2023-06-22T10:22:46;97502.00;;;39.90
80496;BMP180;69819;48.798;11.770;2023-06-22T10:25:13;97505.00;;;39.60
80496;BMP180;69819;48.798;11.770;2023-06-22T10:27:39;97504.00;;;39.50
80496;BMP180;69819;48.798;11.770;2023-06-22T10:30:12;97499.00;;;39.40
80496;BMP180;69819;48.798;11.770;2023-06-22T10:32:39;97493.00;;;39.20
80496;BMP180;69819;48.798;11.770;2023-06-22T10:35:05;97464.00;;;39.10
80496;BMP180;69819;48.798;11.770;2023-06-22T10:37:31;97485.00;;;38.90
80496;BMP180;69819;48.798;11.770;2023-06-22T10:39:57;97468.00;;;38.70
80496;BMP180;69819;48.798;11.770;2023-06-22T10:42:23;97500.00;;;38.50
80496;BMP180;69819;48.798;11.770;2023-06-22T10:44:49;97465.00;;;38.30
80496;BMP180;69819;48.798;11.770;2023-06-22T10:47:15;97482.00;;;38.00
80496;BMP180;69819;48.798;11.770;2023-06-22T10:49:41;97485.00;;;37.70
80496;BMP180;69819;48.798;11.770;2023-06-22T10:52:08;97483.00;;;37.40
80496;BMP180;69819;48.798;11.770;2023-06-22T10:54:35;97475.00;;;37.20
80496;BMP180;69819;48.798;11.770;2023-06-22T10:57:03;97469.00;;;36.90
80496;BMP180;69819;48.798;11.770;2023-06-22T10:59:29;97458.00;;;36.70
80496;BMP180;69819;48.798;11.770;2023-06-22T11:01:58;97461.00;;;36.50
80496;BMP180;69819;48.798;11.770;2023-06-22T11:04:25;97436.00;;;36.40
80496;BMP180;69819;48.798;11.770;2023-06-22T11:06:51;97446.00;;;36.30
80496;BMP180;69819;48.798;11.770;2023-06-22T11:09:17;97442.00;;;36.10
80496;BMP180;69819;48.798;11.770;2023-06-22T11:11:50;97448.00;;;36.10
80496;BMP180;69819;48.798;11.770;2023-06-22T11:14:19;97456.00;;;36.00
80496;BMP180;69819;48.798;11.770;2023-06-22T11:16:45;97445.00;;;36.00
80496;BMP180;69819;48.798;11.770;2023-06-22T11:19:12;97453.00;;;36.00
80496;BMP180;69819;48.798;11.770;2023-06-22T11:21:38;97440.00;;;35.90
80496;BMP180;69819;48.798;11.770;2023-06-22T11:24:04;97427.00;;;35.90
80496;BMP180;69819;48.798;11.770;2023-06-22T11:26:30;97416.00;;;35.90
80496;BMP180;69819;48.798;11.770;2023-06-22T11:28:58;97451.00;;;36.00
80496;BMP180;69819;48.798;11.770;2023-06-22T11:31:24;97444.00;;;36.00
80496;BMP180;69819;48.798;11.770;2023-06-22T11:33:50;97437.00;;;36.10
80496;BMP180;69819;48.798;11.770;2023-06-22T11:36:16;97408.00;;;36.10
80496;BMP180;69819;48.798;11.770;2023-06-22T11:38:43;97435.00;;;36.20
80496;BMP180;69819;48.798;11.770;2023-06-22T11:41:10;97419.00;;;36.20
80496;BMP180;69819;48.798;11.770;2023-06-22T11:43:36;97413.00;;;36.20
80496;BMP180;69819;48.798;11.770;2023-06-22T11:46:04;97427.00;;;36.20
80496;BMP180;69819;48.798;11.770;2023-06-22T11:48:30;97356.00;;;36.30
80496;BMP180;69819;48.798;11.770;2023-06-22T11:50:56;97431.00;;;36.20
80496;BMP180;69819;48.798;11.770;2023-06-22T11:53:25;97417.00;;;36.20
80496;BMP180;69819;48.798;11.770;2023-06-22T11:55:51;97420.00;;;36.10
80496;BMP180;69819;48.798;11.770;2023-06-22T11:58:18;97382.00;;;36.10
80496;BMP180;69819;48.798;11.770;2023-06-22T12:00:43;97404.00;;;36.00
80496;BMP180;69819;48.798;11.770;2023-06-22T12:03:10;97391.00;;;36.00
80496;BMP180;69819;48.798;11.770;2023-06-22T12:05:38;97394.00;;;36.10
80496;BMP180;69819;48.798;11.770;2023-06-22T12:08:04;97388.00;;;36.00
80496;BMP180;69819;48.798;11.770;2023-06-22T12:10:30;97396.00;;;36.00
80496;BMP180;69819;48.798;11.770;2023-06-22T12:12:56;97380.00;;;36.00
80496;BMP180;69819;48.798;11.770;2023-06-22T12:15:26;97391.00;;;36.00
80496;BMP180;69819;48.798;11.770;2023-06-22T12:17:53;97383.00;;;36.00
80496;BMP180;69819;48.798;11.770;2023-06-22T12:20:19;97367.00;;;36.00
80496;BMP180;69819;48.798;11.770;2023-06-22T12:22:44;97356.00;;;36.00
80496;BMP180;69819;48.798;11.770;2023-06-22T12:25:11;97387.00;;;36.10
80496;BMP180;69819;48.798;11.770;2023-06-22T12:27:38;97384.00;;;36.10
80496;BMP180;69819;48.798;11.770;2023-06-22T12:30:05;97374.00;;;36.10
80496;BMP180;69819;48.798;11.770;2023-06-22T12:32:30;97366.00;;;36.00
80496;BMP180;69819;48.798;11.770;2023-06-22T12:34:57;97335.00;;;36.00
80496;BMP180;69819;48.798;11.770;2023-06-22T12:37:23;97346.00;;;35.90
80496;BMP180;69819;48.798;11.770;2023-06-22T12:39:49;97354.00;;;35.90
80496;BMP180;69819;48.798;11.770;2023-06-22T12:42:16;97344.00;;;35.80
80496;BMP180;69819;48.798;11.770;2023-06-22T12:44:42;97346.00;;;35.80
80496;BMP180;69819;48.798;11.770;2023-06-22T12:47:09;97345.00;;;35.80
80496;BMP180;69819;48.798;11.770;2023-06-22T12:49:38;97349.00;;;35.90
80496;BMP180;69819;48.798;11.770;2023-06-22T12:52:09;97343.00;;;35.90
80496;BMP180;69819;48.798;11.770;2023-06-22T12:54:36;97348.00;;;36.00
80496;BMP180;69819;48.798;11.770;2023-06-22T12:57:02;97361.00;;;36.10
80496;BMP180;69819;48.798;11.770;2023-06-22T12:59:28;97325.00;;;35.90
80496;BMP180;69819;48.798;11.770;2023-06-22T13:01:54;97351.00;;;36.20
80496;BMP180;69819;48.798;11.770;2023-06-22T13:04:20;97340.00;;;36.30
80496;BMP180;69819;48.798;11.770;2023-06-22T13:06:46;97345.00;;;36.40
80496;BMP180;69819;48.798;11.770;2023-06-22T13:09:15;97339.00;;;36.40
80496;BMP180;69819;48.798;11.770;2023-06-22T13:11:42;97321.00;;;36.50
80496;BMP180;69819;48.798;11.770;2023-06-22T13:14:08;97331.00;;;36.60
80496;BMP180;69819;48.798;11.770;2023-06-22T13:16:34;97326.00;;;36.70
80496;BMP180;69819;48.798;11.770;2023-06-22T13:19:00;97324.00;;;36.80
80496;BMP180;69819;48.798;11.770;2023-06-22T13:21:26;97312.00;;;36.90
80496;BMP180;69819;48.798;11.770;2023-06-22T13:23:51;97291.00;;;36.90
80496;BMP180;69819;48.798;11.770;2023-06-22T13:26:17;97293.00;;;37.00
80496;BMP180;69819;48.798;11.770;2023-06-22T13:28:43;97304.00;;;37.00
80496;BMP180;69819;48.798;11.770;2023-06-22T13:31:10;97311.00;;;37.00
80496;BMP180;69819;48.798;11.770;2023-06-22T13:33:37;97307.00;;;37.00
80496;BMP180;69819;48.798;11.770;2023-06-22T13:36:03;97308.00;;;37.10
80496;BMP180;69819;48.798;11.770;2023-06-22T13:38:31;97279.00;;;37.00
80496;BMP180;69819;48.798;11.770;2023-06-22T13:40:57;97301.00;;;37.00
80496;BMP180;69819;48.798;11.770;2023-06-22T13:43:26;97295.00;;;37.00
80496;BMP180;69819;48.798;11.770;2023-06-22T13:45:52;97284.00;;;36.80
80496;BMP180;69819;48.798;11.770;2023-06-22T13:48:18;97277.00;;;37.10
80496;BMP180;69819;48.798;11.770;2023-06-22T13:50:44;97289.00;;;37.10
80496;BMP180;69819;48.798;11.770;2023-06-22T13:53:10;97289.00;;;37.10
80496;BMP180;69819;48.798;11.770;2023-06-22T13:55:35;97295.00;;;37.20
80496;BMP180;69819;48.798;11.770;2023-06-22T13:58:01;97300.00;;;37.30
80496;BMP180;69819;48.798;11.770;2023-06-22T14:00:27;97295.00;;;37.40